createdAt,value
2018-12-20T00:01:20.769Z,16.40
2018-12-20T00:03:48.292Z,16.37
2018-12-20T00:06:15.790Z,15.37
2018-12-20T00:08:43.421Z,15.30
2018-12-20T00:11:11.109Z,16.53
2018-12-20T00:13:38.781Z,15.97
2018-12-20T00:16:06.517Z,16.60
2018-12-20T00:18:34.159Z,16.00
2018-12-20T00:21:01.666Z,17.07
2018-12-20T00:23:29.180Z,15.73
2018-12-20T00:25:56.745Z,15.90
2018-12-20T00:28:24.243Z,15.53
2018-12-20T00:30:51.977Z,17.10
2018-12-20T00:33:19.612Z,16.53
2018-12-20T00:35:47.180Z,16.43
2018-12-20T00:38:14.914Z,16.23
2018-12-20T00:40:42.620Z,15.90
2018-12-20T00:43:10.480Z,15.87
2018-12-20T00:45:38.184Z,16.13
2018-12-20T00:48:05.861Z,16.03
2018-12-20T00:50:33.477Z,15.43
2018-12-20T00:53:01.132Z,17.17
2018-12-20T00:55:28.694Z,17.53
2018-12-20T00:57:56.313Z,16.77
2018-12-20T01:00:24.135Z,17.17
2018-12-20T01:02:55.231Z,16.33
2018-12-20T01:05:21.325Z,17.17
2018-12-20T01:07:49.157Z,16.57
2018-12-20T01:10:16.817Z,15.77
2018-12-20T01:12:44.346Z,17.60
2018-12-20T01:15:11.851Z,16.80
2018-12-20T01:17:39.414Z,16.77
2018-12-20T01:20:08.860Z,16.00
2018-12-20T01:22:36.621Z,16.97
2018-12-20T01:25:04.947Z,16.43
2018-12-20T01:27:32.572Z,16.60
2018-12-20T01:30:00.176Z,17.60
2018-12-20T01:32:27.730Z,18.70
2018-12-20T01:34:55.329Z,16.47
2018-12-20T01:37:22.863Z,17.40
2018-12-20T01:39:50.621Z,16.80
2018-12-20T01:42:18.311Z,17.13
2018-12-20T01:44:53.297Z,16.73
2018-12-20T01:47:15.555Z,16.43
2018-12-20T01:49:43.420Z,17.03
2018-12-20T01:52:11.046Z,17.53
2018-12-20T01:54:38.662Z,16.83
2018-12-20T01:57:06.466Z,17.90
2018-12-20T01:59:34.141Z,17.57
2018-12-20T02:02:02.293Z,17.00
2018-12-20T02:04:29.897Z,17.60
2018-12-20T02:06:57.704Z,17.47
2018-12-20T02:09:25.489Z,16.17
2018-12-20T02:11:53.123Z,17.37
2018-12-20T02:14:20.794Z,19.37
2018-12-20T02:16:48.415Z,16.27
2018-12-20T02:19:15.971Z,18.63
2018-12-20T02:21:43.933Z,19.47
2018-12-20T02:24:11.721Z,17.67
2018-12-20T02:26:39.302Z,19.20
2018-12-20T02:29:07.062Z,18.33
2018-12-20T02:31:34.678Z,18.73
2018-12-20T02:34:02.236Z,17.77
2018-12-20T02:36:29.852Z,17.90
2018-12-20T02:38:57.486Z,19.33
2018-12-20T02:41:25.129Z,17.63
2018-12-20T02:43:52.920Z,18.80
2018-12-20T02:46:20.873Z,19.27
2018-12-20T02:48:48.457Z,18.67
2018-12-20T02:51:16.277Z,20.07
2018-12-20T02:53:43.935Z,18.50
2018-12-20T02:56:11.459Z,19.90
2018-12-20T02:58:39.168Z,19.57
2018-12-20T03:01:18.139Z,18.30
2018-12-20T03:03:46.207Z,19.53
2018-12-20T03:06:14.169Z,18.20
2018-12-20T03:08:42.493Z,19.80
2018-12-20T03:11:10.269Z,18.40
2018-12-20T03:13:38.207Z,18.67
2018-12-20T03:16:05.864Z,18.73
2018-12-20T03:18:33.490Z,18.97
2018-12-20T03:21:01.054Z,20.33
2018-12-20T03:23:28.915Z,19.93
2018-12-20T03:25:56.562Z,18.17
2018-12-20T03:28:24.322Z,18.37
2018-12-20T03:30:52.468Z,18.53
2018-12-20T03:33:20.118Z,20.47
2018-12-20T03:35:47.925Z,18.73
2018-12-20T03:38:15.572Z,17.43
2018-12-20T03:40:43.318Z,18.50
2018-12-20T03:43:11.009Z,21.30
2018-12-20T03:45:39.537Z,21.73
2018-12-20T03:48:07.180Z,19.20
2018-12-20T03:50:34.709Z,19.50
2018-12-20T03:53:02.344Z,19.27
2018-12-20T03:55:30.410Z,18.83
2018-12-20T03:57:58.465Z,20.67
2018-12-20T04:00:26.359Z,19.53
2018-12-20T04:02:54.219Z,21.27
2018-12-20T04:05:21.883Z,18.13
2018-12-20T04:07:49.535Z,19.83
2018-12-20T04:10:17.329Z,18.67
2018-12-20T04:12:45.005Z,17.60
2018-12-20T04:15:12.516Z,19.37
2018-12-20T04:17:40.057Z,19.63
2018-12-20T04:20:07.750Z,20.33
2018-12-20T04:22:35.733Z,19.70
2018-12-20T04:25:03.462Z,19.30
2018-12-20T04:27:31.011Z,19.50
2018-12-20T04:29:58.573Z,19.57
2018-12-20T04:32:26.131Z,19.63
2018-12-20T04:34:53.878Z,19.93
2018-12-20T04:37:21.733Z,19.97
2018-12-20T04:39:49.627Z,21.30
2018-12-20T04:42:17.392Z,21.60
2018-12-20T04:44:45.168Z,19.60
2018-12-20T04:47:12.941Z,19.17
2018-12-20T04:49:40.646Z,20.90
2018-12-20T04:52:08.431Z,18.67
2018-12-20T04:54:35.988Z,19.97
2018-12-20T04:57:03.543Z,24.07
2018-12-20T04:59:31.058Z,19.70
2018-12-20T05:01:58.680Z,19.47
2018-12-20T05:04:26.365Z,19.00
2018-12-20T05:06:53.917Z,19.43
2018-12-20T05:09:21.521Z,19.60
2018-12-20T05:11:49.066Z,20.03
2018-12-20T05:14:16.665Z,19.40
2018-12-20T05:16:44.240Z,19.23
2018-12-20T05:19:11.824Z,19.17
2018-12-20T05:21:39.667Z,20.17
2018-12-20T05:24:07.359Z,21.37
2018-12-20T05:26:34.891Z,20.80
2018-12-20T05:29:02.490Z,20.33
2018-12-20T05:31:30.040Z,19.23
2018-12-20T05:33:57.682Z,19.83
2018-12-20T05:36:25.413Z,19.40
2018-12-20T05:38:53.015Z,18.67
2018-12-20T05:41:20.522Z,20.70
2018-12-20T05:43:48.303Z,18.93
2018-12-20T05:46:16.278Z,19.53
2018-12-20T05:48:44.128Z,19.37
2018-12-20T05:51:11.851Z,18.17
2018-12-20T05:53:39.438Z,19.87
2018-12-20T05:56:07.098Z,20.07
2018-12-20T05:58:34.628Z,18.97
2018-12-20T06:01:02.328Z,18.43
2018-12-20T06:03:30.235Z,20.20
2018-12-20T06:05:57.818Z,18.00
2018-12-20T06:08:25.373Z,18.77
2018-12-20T06:10:53.958Z,19.13
2018-12-20T06:13:21.722Z,18.47
2018-12-20T06:15:50.273Z,18.27
2018-12-20T06:18:18.086Z,19.37
2018-12-20T06:20:45.741Z,18.23
2018-12-20T06:23:13.315Z,18.40
2018-12-20T06:25:40.835Z,18.73
2018-12-20T06:28:08.343Z,19.13
2018-12-20T06:30:35.851Z,18.83
2018-12-20T06:33:03.362Z,20.33
2018-12-20T06:35:30.904Z,18.57
2018-12-20T06:37:58.413Z,18.80
2018-12-20T06:40:25.980Z,20.03
2018-12-20T06:42:54.185Z,17.67
2018-12-20T06:45:21.751Z,19.80
2018-12-20T06:47:49.306Z,19.87
2018-12-20T06:50:16.871Z,17.97
2018-12-20T06:52:44.365Z,19.13
2018-12-20T06:55:11.991Z,20.07
2018-12-20T06:57:39.491Z,19.73
2018-12-20T07:00:08.848Z,19.30
2018-12-20T07:02:38.499Z,19.00
2018-12-20T07:05:06.165Z,18.03
2018-12-20T07:07:33.698Z,19.77
2018-12-20T07:10:01.255Z,18.67
2018-12-20T07:12:28.769Z,18.10
2018-12-20T07:14:56.356Z,20.10
2018-12-20T07:17:23.854Z,20.20
2018-12-20T07:19:51.482Z,19.50
2018-12-20T07:22:18.983Z,19.40
2018-12-20T07:24:46.528Z,19.43
2018-12-20T07:27:14.627Z,20.37
2018-12-20T07:29:42.130Z,18.97
2018-12-20T07:32:09.792Z,19.03
2018-12-20T07:34:37.389Z,19.47
2018-12-20T07:37:05.122Z,19.17
2018-12-20T07:39:32.670Z,17.67
2018-12-20T07:42:00.210Z,17.73
2018-12-20T07:44:27.802Z,20.63
2018-12-20T07:46:55.299Z,18.70
2018-12-20T07:49:22.815Z,21.03
2018-12-20T07:51:50.474Z,19.57
2018-12-20T07:54:18.005Z,19.37
2018-12-20T07:56:45.560Z,17.73
2018-12-20T07:59:13.263Z,20.00
2018-12-20T08:01:40.757Z,19.37
2018-12-20T08:04:08.275Z,19.60
2018-12-20T08:06:35.839Z,19.17
2018-12-20T08:09:04.623Z,18.20
2018-12-20T08:11:32.143Z,18.07
2018-12-20T08:13:59.874Z,19.87
2018-12-20T08:16:27.373Z,19.60
2018-12-20T08:18:54.965Z,19.00
2018-12-20T08:21:22.540Z,19.03
2018-12-20T08:23:50.086Z,18.50
2018-12-20T08:26:17.646Z,20.07
2018-12-20T08:28:45.152Z,17.93
2018-12-20T08:31:12.773Z,19.03
2018-12-20T08:33:40.276Z,18.40
2018-12-20T08:36:07.825Z,18.37
2018-12-20T08:38:35.343Z,18.63
2018-12-20T08:41:03.006Z,19.00
2018-12-20T08:43:30.565Z,17.67
2018-12-20T08:45:58.191Z,17.37
2018-12-20T08:48:25.730Z,17.73
2018-12-20T08:50:53.351Z,18.57
2018-12-20T08:53:20.912Z,18.83
2018-12-20T08:55:48.470Z,18.33
2018-12-20T08:58:16.130Z,18.20
2018-12-20T09:00:43.690Z,17.93
2018-12-20T09:03:11.251Z,17.77
2018-12-20T09:05:38.791Z,17.97
2018-12-20T09:08:06.382Z,18.27
2018-12-20T09:10:34.036Z,18.80
2018-12-20T09:13:09.348Z,18.50
2018-12-20T09:15:31.130Z,17.83
2018-12-20T09:17:58.656Z,18.60
2018-12-20T09:20:32.655Z,17.80
2018-12-20T09:22:55.836Z,17.47
2018-12-20T09:25:23.390Z,20.47
2018-12-20T09:27:50.949Z,17.77
2018-12-20T09:30:18.452Z,17.63
2018-12-20T09:32:45.966Z,18.17
2018-12-20T09:35:13.499Z,17.27
2018-12-20T09:37:41.043Z,16.83
2018-12-20T09:40:08.760Z,19.07
2018-12-20T09:42:36.261Z,17.97
2018-12-20T09:45:04.286Z,17.20
2018-12-20T09:50:32.372Z,19.43
2018-12-20T09:52:59.949Z,17.73
2018-12-20T09:55:27.468Z,18.27
2018-12-20T09:57:54.965Z,17.87
2018-12-20T10:00:22.484Z,16.63
2018-12-20T10:02:50.076Z,17.60
2018-12-20T10:05:17.585Z,17.23
2018-12-20T10:07:45.125Z,17.30
2018-12-20T10:10:12.757Z,17.83
2018-12-20T10:12:40.272Z,17.23
2018-12-20T10:15:07.887Z,17.33
2018-12-20T10:17:35.430Z,18.87
2018-12-20T10:20:03.100Z,19.17
2018-12-20T10:22:30.655Z,16.73
2018-12-20T10:24:58.211Z,18.53
2018-12-20T10:27:31.349Z,16.23
2018-12-20T10:29:55.377Z,16.73
2018-12-20T10:32:22.938Z,17.43
2018-12-20T10:34:50.432Z,17.77
2018-12-20T10:37:17.935Z,17.03
2018-12-20T10:39:45.464Z,17.73
2018-12-20T10:42:13.076Z,17.30
2018-12-20T10:44:40.639Z,17.53
2018-12-20T10:47:13.697Z,18.33
2018-12-20T10:49:41.286Z,16.43
2018-12-20T10:52:08.846Z,16.50
2018-12-20T10:54:36.363Z,16.93
2018-12-20T10:57:04.040Z,19.10
2018-12-20T10:59:32.177Z,16.63
2018-12-20T11:02:05.409Z,16.50
2018-12-20T11:04:34.944Z,16.37
2018-12-20T11:07:08.129Z,17.17
2018-12-20T11:09:41.188Z,17.10
2018-12-20T11:12:09.028Z,17.57
2018-12-20T11:14:36.573Z,16.83
2018-12-20T11:17:04.165Z,18.03
2018-12-20T11:19:31.784Z,16.67
2018-12-20T11:21:59.287Z,17.03
2018-12-20T11:24:27.230Z,17.77
2018-12-20T11:26:54.774Z,16.93
2018-12-20T11:29:22.273Z,16.80
2018-12-20T11:31:49.818Z,17.53
2018-12-20T11:34:17.342Z,16.67
2018-12-20T11:36:45.557Z,16.90
2018-12-20T11:39:13.198Z,16.23
2018-12-20T11:41:40.834Z,17.53
2018-12-20T11:44:08.412Z,16.20
2018-12-20T11:46:35.959Z,15.90
2018-12-20T11:49:03.522Z,16.80
2018-12-20T11:51:31.077Z,15.63
2018-12-20T11:53:58.642Z,17.30
2018-12-20T11:56:26.556Z,14.37
2018-12-20T11:58:54.064Z,15.93
2018-12-20T12:01:21.658Z,15.23
2018-12-20T12:03:57.198Z,16.83
2018-12-20T12:06:18.917Z,16.20
2018-12-20T12:08:46.455Z,15.97
2018-12-20T12:11:13.976Z,15.63
2018-12-20T12:13:41.510Z,15.87
2018-12-20T12:16:09.135Z,16.63
2018-12-20T12:18:36.649Z,14.50
2018-12-20T12:21:04.697Z,14.43
2018-12-20T12:23:32.651Z,15.73
2018-12-20T12:26:00.199Z,14.93
2018-12-20T12:28:27.753Z,15.00
2018-12-20T12:30:55.245Z,14.57
2018-12-20T12:33:22.766Z,14.93
2018-12-20T12:35:50.329Z,15.30
2018-12-20T12:38:17.839Z,14.50
2018-12-20T12:40:45.472Z,14.50
2018-12-20T12:43:13.012Z,15.23
2018-12-20T12:45:40.589Z,14.87
2018-12-20T12:48:08.238Z,15.13
2018-12-20T12:50:35.792Z,14.20
2018-12-20T12:53:03.359Z,15.47
2018-12-20T12:55:30.917Z,15.03
2018-12-20T12:58:04.571Z,14.80
2018-12-20T13:00:28.056Z,14.17
2018-12-20T13:02:55.576Z,14.57
2018-12-20T13:05:23.202Z,13.93
2018-12-20T13:07:50.760Z,13.93
2018-12-20T13:10:18.421Z,13.50
2018-12-20T13:12:45.921Z,15.33
2018-12-20T13:15:13.526Z,13.17
2018-12-20T13:17:41.038Z,14.47
2018-12-20T13:20:09.518Z,12.90
2018-12-20T13:22:37.084Z,14.33
2018-12-20T13:25:05.328Z,12.73
2018-12-20T13:27:32.821Z,13.27
2018-12-20T13:30:00.331Z,12.37
2018-12-20T13:32:27.902Z,14.93
2018-12-20T13:34:55.413Z,14.13
2018-12-20T13:37:22.918Z,13.90
2018-12-20T13:39:50.446Z,13.37
2018-12-20T13:42:17.969Z,15.63
2018-12-20T13:44:45.494Z,14.43
2018-12-20T13:47:13.094Z,13.50
2018-12-20T13:49:40.616Z,13.73
2018-12-20T13:52:08.198Z,14.63
2018-12-20T13:54:35.749Z,13.70
2018-12-20T13:57:03.302Z,13.67
2018-12-20T13:59:30.849Z,12.73
2018-12-20T14:01:58.934Z,11.60
2018-12-20T14:04:26.526Z,14.27
2018-12-20T14:06:54.159Z,12.57
2018-12-20T14:09:21.682Z,12.77
2018-12-20T14:11:49.267Z,13.23
2018-12-20T14:14:16.848Z,13.50
2018-12-20T14:16:44.420Z,12.03
2018-12-20T14:19:11.948Z,12.83
2018-12-20T14:21:39.539Z,12.77
2018-12-20T14:24:07.190Z,13.03
2018-12-20T14:26:34.704Z,12.93
2018-12-20T14:29:02.211Z,12.77
2018-12-20T14:31:29.749Z,12.87
2018-12-20T14:33:57.377Z,13.23
2018-12-20T14:36:24.932Z,12.30
2018-12-20T14:38:52.558Z,11.97
2018-12-20T14:41:20.059Z,12.90
2018-12-20T14:43:47.652Z,12.70
2018-12-20T14:46:15.312Z,13.00
2018-12-20T14:48:42.952Z,12.27
2018-12-20T14:51:10.536Z,12.13
2018-12-20T14:53:38.166Z,12.70
2018-12-20T14:56:05.716Z,13.27
2018-12-20T14:58:33.217Z,11.30
2018-12-20T15:01:00.777Z,12.00
2018-12-20T15:03:28.288Z,13.57
2018-12-20T15:05:55.898Z,13.27
2018-12-20T15:08:23.400Z,12.73
2018-12-20T15:10:50.957Z,12.43
2018-12-20T15:13:18.472Z,12.23
2018-12-20T15:15:46.031Z,12.73
2018-12-20T15:18:13.594Z,12.27
2018-12-20T15:20:41.122Z,11.30
2018-12-20T15:23:08.714Z,12.27
2018-12-20T15:25:36.481Z,11.80
2018-12-20T15:28:04.402Z,12.37
2018-12-20T15:30:32.046Z,12.77
2018-12-20T15:32:59.674Z,12.43
2018-12-20T15:35:27.229Z,12.63
2018-12-20T15:37:54.794Z,12.63
2018-12-20T15:40:22.376Z,12.80
2018-12-20T15:42:49.909Z,13.90
2018-12-20T15:45:17.469Z,10.93
2018-12-20T15:47:45.030Z,13.77
2018-12-20T15:50:12.563Z,12.70
2018-12-20T15:52:40.081Z,13.30
2018-12-20T15:55:07.714Z,13.60
2018-12-20T15:57:35.377Z,13.40
2018-12-20T16:00:03.035Z,13.40
2018-12-20T16:02:30.532Z,14.50
2018-12-20T16:04:58.767Z,13.07
2018-12-20T16:07:30.746Z,13.77
2018-12-20T16:09:58.330Z,14.23
2018-12-20T16:12:26.980Z,14.53
2018-12-20T16:14:54.481Z,14.27
2018-12-20T16:17:22.099Z,15.33
2018-12-20T16:19:49.658Z,14.17
2018-12-20T16:22:17.226Z,14.03
2018-12-20T16:24:44.885Z,15.57
2018-12-20T16:27:12.466Z,15.03
2018-12-20T16:29:40.016Z,16.10
2018-12-20T16:32:07.786Z,14.97
2018-12-20T16:34:35.361Z,14.83
2018-12-20T16:37:02.993Z,15.13
2018-12-20T16:39:30.576Z,14.00
2018-12-20T16:41:58.177Z,14.47
2018-12-20T16:44:25.668Z,14.10
2018-12-20T16:46:53.209Z,14.63
2018-12-20T16:49:20.798Z,14.40
2018-12-20T16:51:48.355Z,12.73
2018-12-20T16:54:15.947Z,13.33
2018-12-20T16:56:43.466Z,13.53
2018-12-20T16:59:11.033Z,13.13
2018-12-20T17:01:38.590Z,13.30
2018-12-20T17:04:06.176Z,12.53
2018-12-20T17:06:33.815Z,11.67
2018-12-20T17:09:01.410Z,12.67
2018-12-20T17:11:28.946Z,12.20
2018-12-20T17:13:56.602Z,11.83
2018-12-20T17:16:24.289Z,12.67
2018-12-20T17:18:51.821Z,12.33
2018-12-20T17:21:19.379Z,13.27
2018-12-20T17:23:46.977Z,11.33
2018-12-20T17:26:14.614Z,11.90
2018-12-20T17:28:42.129Z,11.97
2018-12-20T17:31:09.646Z,11.53
2018-12-20T17:33:37.169Z,11.10
2018-12-20T17:36:04.754Z,10.80
2018-12-20T17:38:32.430Z,11.60
2018-12-20T17:40:59.985Z,10.33
2018-12-20T17:43:27.517Z,11.70
2018-12-20T17:45:55.046Z,11.43
2018-12-20T17:48:29.077Z,11.30
2018-12-20T17:50:52.218Z,11.27
2018-12-20T17:53:19.809Z,9.97
2018-12-20T17:55:47.359Z,10.50
2018-12-20T17:58:14.871Z,10.77
2018-12-20T18:00:42.423Z,11.23
2018-12-20T18:03:09.947Z,11.23
2018-12-20T18:05:37.510Z,10.90
2018-12-20T18:08:05.049Z,9.83
2018-12-20T18:10:32.566Z,11.13
2018-12-20T18:13:00.187Z,11.23
2018-12-20T18:15:27.686Z,10.23
2018-12-20T18:17:55.328Z,10.53
2018-12-20T18:20:22.834Z,10.10
2018-12-20T18:22:50.362Z,10.47
2018-12-20T18:25:17.856Z,11.47
2018-12-20T18:27:45.369Z,10.47
2018-12-20T18:30:12.875Z,10.00
2018-12-20T18:32:40.436Z,10.50
2018-12-20T18:35:07.946Z,10.47
2018-12-20T18:37:36.035Z,10.50
2018-12-20T18:40:04.563Z,9.47
2018-12-20T18:42:32.142Z,10.23
2018-12-20T18:44:59.699Z,10.30
2018-12-20T18:47:27.236Z,11.13
2018-12-20T18:49:54.830Z,10.77
2018-12-20T18:52:22.344Z,10.97
2018-12-20T18:54:49.890Z,9.67
2018-12-20T18:57:17.451Z,10.17
2018-12-20T18:59:45.052Z,9.83
2018-12-20T19:02:12.611Z,10.23
2018-12-20T19:04:40.145Z,12.47
2018-12-20T19:07:07.664Z,10.53
2018-12-20T19:09:35.206Z,9.80
2018-12-20T19:12:02.862Z,9.73
2018-12-20T19:14:30.410Z,9.53
2018-12-20T19:16:57.909Z,9.23
2018-12-20T19:19:25.542Z,9.43
2018-12-20T19:21:53.054Z,9.93
2018-12-20T19:24:20.581Z,8.77
2018-12-20T19:26:48.128Z,9.60
2018-12-20T19:29:15.638Z,9.30
2018-12-20T19:31:43.160Z,9.10
2018-12-20T19:34:10.691Z,8.53
2018-12-20T19:36:38.192Z,10.03
2018-12-20T19:39:08.886Z,9.40
2018-12-20T19:41:36.440Z,8.87
2018-12-20T19:44:04.102Z,7.97
2018-12-20T19:46:31.611Z,9.43
2018-12-20T19:48:59.223Z,8.87
2018-12-20T19:51:26.795Z,9.30
2018-12-20T19:53:54.342Z,10.03
2018-12-20T19:56:21.922Z,8.13
2018-12-20T19:58:49.430Z,8.13
2018-12-20T20:01:16.941Z,9.23
2018-12-20T20:03:44.520Z,8.10
2018-12-20T20:06:12.097Z,8.23
2018-12-20T20:08:39.712Z,8.83
2018-12-20T20:11:07.222Z,8.90
2018-12-20T20:13:34.854Z,8.90
2018-12-20T20:16:02.394Z,8.93
2018-12-20T20:18:29.948Z,8.20
2018-12-20T20:20:57.539Z,8.37
2018-12-20T20:23:25.079Z,8.03
2018-12-20T20:25:52.635Z,7.60
2018-12-20T20:28:20.144Z,8.23
2018-12-20T20:30:47.679Z,8.70
2018-12-20T20:33:15.309Z,8.00
2018-12-20T20:35:43.249Z,8.07
2018-12-20T20:38:10.772Z,7.83
2018-12-20T20:40:38.290Z,8.13
2018-12-20T20:43:05.789Z,7.57
2018-12-20T20:45:33.868Z,8.13
2018-12-20T20:48:01.431Z,8.30
2018-12-20T20:50:28.975Z,8.20
2018-12-20T20:52:56.604Z,7.53
2018-12-20T20:55:24.180Z,7.57
2018-12-20T20:57:51.695Z,8.13
2018-12-20T21:00:19.226Z,7.60
2018-12-20T21:02:46.794Z,7.07
2018-12-20T21:05:14.596Z,7.57
2018-12-20T21:07:42.181Z,7.67
2018-12-20T21:10:09.776Z,8.00
2018-12-20T21:12:37.309Z,7.70
2018-12-20T21:15:07.119Z,7.87
2018-12-20T21:17:34.667Z,7.90
2018-12-20T21:20:02.232Z,7.47
2018-12-20T21:22:29.732Z,8.47
2018-12-20T21:24:57.242Z,7.83
2018-12-20T21:27:24.801Z,6.90
2018-12-20T21:29:52.418Z,7.93
2018-12-20T21:32:19.952Z,7.17
2018-12-20T21:34:47.510Z,6.60
2018-12-20T21:37:15.580Z,7.00
2018-12-20T21:39:43.137Z,7.47
2018-12-20T21:42:10.644Z,6.40
2018-12-20T21:44:38.171Z,7.23
2018-12-20T21:47:05.678Z,7.83
2018-12-20T21:49:33.254Z,7.40
2018-12-20T21:52:01.685Z,7.03
2018-12-20T21:54:29.398Z,6.90
2018-12-20T21:56:56.930Z,6.17
2018-12-20T21:59:24.440Z,7.33
2018-12-20T22:01:52.209Z,6.90
2018-12-20T22:04:20.209Z,6.70
2018-12-20T22:06:48.048Z,5.93
2018-12-20T22:09:15.695Z,6.73
2018-12-20T22:11:43.200Z,6.77
2018-12-20T22:14:10.728Z,6.53
2018-12-20T22:16:38.460Z,6.00
2018-12-20T22:19:06.306Z,7.40
2018-12-20T22:21:34.029Z,5.87
2018-12-20T22:24:01.556Z,6.43
2018-12-20T22:26:29.064Z,5.93
2018-12-20T22:28:56.769Z,5.57
2018-12-20T22:31:24.271Z,6.03
2018-12-20T22:33:52.207Z,6.47
2018-12-20T22:36:19.733Z,7.10
2018-12-20T22:38:47.318Z,5.80
2018-12-20T22:41:15.094Z,6.07
2018-12-20T22:43:42.642Z,5.43
2018-12-20T22:46:11.220Z,5.60
2018-12-20T22:48:38.882Z,5.57
2018-12-20T22:51:06.391Z,5.87
2018-12-20T22:53:33.903Z,6.33
2018-12-20T22:56:01.495Z,5.20
2018-12-20T22:58:29.026Z,5.83
2018-12-20T23:00:56.569Z,6.30
2018-12-20T23:03:24.171Z,6.43
2018-12-20T23:05:51.739Z,5.20
2018-12-20T23:08:19.300Z,5.37
2018-12-20T23:10:47.137Z,5.90
2018-12-20T23:13:14.793Z,5.37
2018-12-20T23:15:42.361Z,4.67
2018-12-20T23:18:09.866Z,5.03
2018-12-20T23:20:37.375Z,5.03
2018-12-20T23:23:04.966Z,5.00
2018-12-20T23:25:32.603Z,4.73
2018-12-20T23:28:00.684Z,5.43
2018-12-20T23:30:28.335Z,6.23
2018-12-20T23:32:55.886Z,5.00
2018-12-20T23:35:23.454Z,4.57
2018-12-20T23:37:50.944Z,4.73
2018-12-20T23:40:18.489Z,5.80
2018-12-20T23:42:46.000Z,5.23
2018-12-20T23:45:13.587Z,5.97
2018-12-20T23:47:41.148Z,5.60
2018-12-20T23:50:08.682Z,5.20
2018-12-20T23:52:36.270Z,4.73
2018-12-20T23:55:04.439Z,5.23
2018-12-20T23:57:32.010Z,4.53
2018-12-20T23:59:59.531Z,5.13
